DLH1PX EDDV-EDDM
Flight info
| Callsign | DLH1PX |
|---|---|
| Flight time | 0h 47m |
| Altitude | 31000 |
| Route | POVEL3H POVEL Z94 GALMA T703 LULAR T105 LANDU LANDU2B |
| Aircraft | A20N/M-SDE2E3FGIJ1LORWXYZ/HB1 |
Departure
| Time | 2026-05-07 13:56 |
|---|---|
| Airport | Hannover Airport (EDDV) |
Arrival
| Time | 2026-05-07 14:43 |
|---|---|
| Airport | Munich Airport (EDDM) |
| Time | Latitude | Longitude | Altitude | Speed | Heading |
|---|---|---|---|---|---|
| 2026-05-07 13:14 | 52.45839 | 9.69462 | 192 ft | 0 kts | 23° |
| 2026-05-07 13:45 | 52.45829 | 9.69455 | 192 ft | 2 kts | 21° |
| 2026-05-07 13:45 | 52.45815 | 9.69446 | 192 ft | 2 kts | 22° |
| 2026-05-07 13:46 | 52.45801 | 9.69437 | 192 ft | 1 kts | 22° |
| 2026-05-07 13:46 | 52.45790 | 9.69429 | 192 ft | 2 kts | 25° |
| 2026-05-07 13:46 | 52.45776 | 9.69427 | 192 ft | 2 kts | 333° |
| 2026-05-07 13:46 | 52.45762 | 9.69438 | 192 ft | 2 kts | 342° |
| 2026-05-07 13:47 | 52.45753 | 9.69443 | 192 ft | 2 kts | 338° |
| 2026-05-07 13:47 | 52.45743 | 9.69454 | 192 ft | 1 kts | 311° |
| 2026-05-07 13:47 | 52.45739 | 9.69463 | 192 ft | 1 kts | 304° |
| 2026-05-07 13:47 | 52.45737 | 9.69466 | 192 ft | 0 kts | 307° |
| 2026-05-07 13:51 | 52.45740 | 9.69460 | 192 ft | 2 kts | 307° |
| 2026-05-07 13:52 | 52.45756 | 9.69417 | 192 ft | 6 kts | 291° |
| 2026-05-07 13:52 | 52.45760 | 9.69323 | 192 ft | 10 kts | 270° |
| 2026-05-07 13:52 | 52.45757 | 9.69189 | 192 ft | 12 kts | 244° |
| 2026-05-07 13:52 | 52.45673 | 9.69146 | 192 ft | 13 kts | 185° |
| 2026-05-07 13:53 | 52.45623 | 9.69045 | 192 ft | 14 kts | 276° |
| 2026-05-07 13:53 | 52.45630 | 9.68877 | 192 ft | 15 kts | 272° |
| 2026-05-07 13:53 | 52.45636 | 9.68702 | 192 ft | 15 kts | 274° |
| 2026-05-07 13:53 | 52.45641 | 9.68520 | 192 ft | 16 kts | 271° |
| 2026-05-07 13:54 | 52.45645 | 9.68325 | 191 ft | 17 kts | 273° |
| 2026-05-07 13:54 | 52.45651 | 9.68129 | 192 ft | 17 kts | 272° |
| 2026-05-07 13:54 | 52.45657 | 9.67927 | 192 ft | 17 kts | 272° |
| 2026-05-07 13:54 | 52.45638 | 9.67748 | 191 ft | 14 kts | 229° |
| 2026-05-07 13:55 | 52.45544 | 9.67699 | 191 ft | 15 kts | 181° |
| 2026-05-07 13:55 | 52.45496 | 9.67737 | 192 ft | 8 kts | 91° |
| 2026-05-07 13:55 | 52.45491 | 9.67922 | 192 ft | 46 kts | 92° |
| 2026-05-07 13:55 | 52.45466 | 9.68893 | 192 ft | 121 kts | 93° |
| 2026-05-07 13:56 | 52.45423 | 9.70528 | 464 ft | 155 kts | 91° |
| 2026-05-07 13:56 | 52.45371 | 9.72326 | 1139 ft | 162 kts | 91° |
| 2026-05-07 13:56 | 52.45334 | 9.74161 | 1938 ft | 164 kts | 89° |
| 2026-05-07 13:56 | 52.45285 | 9.76018 | 2579 ft | 172 kts | 91° |
| 2026-05-07 13:57 | 52.45214 | 9.78061 | 3131 ft | 188 kts | 91° |
| 2026-05-07 13:57 | 52.45147 | 9.80268 | 3574 ft | 210 kts | 91° |
| 2026-05-07 13:57 | 52.45076 | 9.82790 | 4134 ft | 230 kts | 91° |
| 2026-05-07 13:57 | 52.45002 | 9.85542 | 4751 ft | 248 kts | 91° |
| 2026-05-07 13:58 | 52.44926 | 9.88403 | 5526 ft | 259 kts | 91° |
| 2026-05-07 13:58 | 52.44840 | 9.91364 | 6472 ft | 263 kts | 93° |
| 2026-05-07 13:58 | 52.44402 | 9.94285 | 7353 ft | 272 kts | 116° |
| 2026-05-07 13:58 | 52.43286 | 9.96740 | 8270 ft | 277 kts | 128° |
| 2026-05-07 13:59 | 52.42023 | 9.99180 | 9144 ft | 282 kts | 129° |
| 2026-05-07 13:59 | 52.40754 | 10.01644 | 9997 ft | 287 kts | 129° |
| 2026-05-07 13:59 | 52.39462 | 10.04159 | 10732 ft | 296 kts | 129° |
| 2026-05-07 13:59 | 52.38110 | 10.06794 | 11195 ft | 313 kts | 129° |
| 2026-05-07 14:00 | 52.36660 | 10.09625 | 11624 ft | 332 kts | 129° |
| 2026-05-07 14:00 | 52.35137 | 10.12600 | 12031 ft | 350 kts | 128° |
| 2026-05-07 14:00 | 52.33557 | 10.15680 | 12627 ft | 359 kts | 129° |
| 2026-05-07 14:00 | 52.31942 | 10.18825 | 13388 ft | 364 kts | 129° |
| 2026-05-07 14:01 | 52.30300 | 10.22022 | 14142 ft | 368 kts | 129° |
| 2026-05-07 14:01 | 52.28651 | 10.25230 | 14872 ft | 373 kts | 129° |
| 2026-05-07 14:01 | 52.26986 | 10.28465 | 15599 ft | 377 kts | 130° |
| 2026-05-07 14:01 | 52.25284 | 10.31767 | 16330 ft | 380 kts | 130° |
| 2026-05-07 14:02 | 52.23581 | 10.35069 | 17023 ft | 384 kts | 130° |
| 2026-05-07 14:02 | 52.21860 | 10.38398 | 17677 ft | 387 kts | 130° |
| 2026-05-07 14:02 | 52.20121 | 10.41758 | 18348 ft | 391 kts | 130° |
| 2026-05-07 14:02 | 52.18355 | 10.45166 | 18985 ft | 394 kts | 130° |
| 2026-05-07 14:03 | 52.16576 | 10.48591 | 19574 ft | 398 kts | 130° |
| 2026-05-07 14:03 | 52.14783 | 10.52041 | 20170 ft | 402 kts | 130° |
| 2026-05-07 14:03 | 52.12976 | 10.55511 | 20765 ft | 406 kts | 130° |
| 2026-05-07 14:03 | 52.11140 | 10.59035 | 21356 ft | 409 kts | 130° |
| 2026-05-07 14:04 | 52.09313 | 10.62537 | 21928 ft | 413 kts | 130° |
| 2026-05-07 14:04 | 52.07446 | 10.66111 | 22504 ft | 416 kts | 131° |
| 2026-05-07 14:04 | 52.05576 | 10.69697 | 23056 ft | 420 kts | 131° |
| 2026-05-07 14:04 | 52.03670 | 10.73349 | 23609 ft | 423 kts | 131° |
| 2026-05-07 14:05 | 52.01766 | 10.76986 | 24147 ft | 426 kts | 131° |
| 2026-05-07 14:05 | 51.99829 | 10.80678 | 24691 ft | 429 kts | 131° |
| 2026-05-07 14:05 | 51.97900 | 10.84343 | 25222 ft | 432 kts | 131° |
| 2026-05-07 14:05 | 51.95929 | 10.88078 | 25741 ft | 435 kts | 131° |
| 2026-05-07 14:06 | 51.93965 | 10.91793 | 26254 ft | 437 kts | 131° |
| 2026-05-07 14:06 | 51.91970 | 10.95562 | 26784 ft | 439 kts | 130° |
| 2026-05-07 14:06 | 51.90009 | 10.99266 | 27463 ft | 437 kts | 131° |
| 2026-05-07 14:06 | 51.87920 | 11.02803 | 28179 ft | 433 kts | 137° |
| 2026-05-07 14:07 | 51.85623 | 11.05871 | 28867 ft | 429 kts | 144° |
| 2026-05-07 14:07 | 51.83152 | 11.08476 | 29484 ft | 426 kts | 150° |
| 2026-05-07 14:07 | 51.80531 | 11.10771 | 29995 ft | 425 kts | 152° |
| 2026-05-07 14:07 | 51.77920 | 11.12977 | 30400 ft | 427 kts | 152° |
| 2026-05-07 14:08 | 51.75288 | 11.15193 | 30790 ft | 428 kts | 152° |
| 2026-05-07 14:08 | 51.72625 | 11.17443 | 30998 ft | 430 kts | 152° |
| 2026-05-07 14:08 | 51.69925 | 11.19417 | 31006 ft | 430 kts | 159° |
| 2026-05-07 14:09 | 51.64232 | 11.22554 | 31012 ft | 430 kts | 161° |
| 2026-05-07 14:09 | 51.58552 | 11.25615 | 31009 ft | 431 kts | 160° |
| 2026-05-07 14:10 | 51.52886 | 11.28715 | 31007 ft | 432 kts | 160° |
| 2026-05-07 14:10 | 51.47214 | 11.31834 | 31007 ft | 432 kts | 160° |
| 2026-05-07 14:11 | 51.41505 | 11.34973 | 31006 ft | 432 kts | 160° |
| 2026-05-07 14:11 | 51.35831 | 11.38085 | 31008 ft | 433 kts | 160° |
| 2026-05-07 14:12 | 51.30116 | 11.41213 | 31008 ft | 435 kts | 159° |
| 2026-05-07 14:12 | 51.24387 | 11.44342 | 31009 ft | 436 kts | 159° |
| 2026-05-07 14:13 | 51.18645 | 11.47471 | 31007 ft | 436 kts | 159° |
| 2026-05-07 14:13 | 51.12922 | 11.50580 | 31008 ft | 436 kts | 159° |
| 2026-05-07 14:14 | 51.07154 | 11.53707 | 31005 ft | 437 kts | 159° |
| 2026-05-07 14:14 | 51.01374 | 11.56830 | 30999 ft | 438 kts | 159° |
| 2026-05-07 14:15 | 50.95586 | 11.59950 | 30987 ft | 439 kts | 159° |
| 2026-05-07 14:15 | 50.89828 | 11.63043 | 30992 ft | 440 kts | 159° |
| 2026-05-07 14:16 | 50.84031 | 11.66141 | 30985 ft | 440 kts | 160° |
| 2026-05-07 14:16 | 50.78203 | 11.69276 | 30986 ft | 441 kts | 160° |
| 2026-05-07 14:17 | 50.72418 | 11.72369 | 30982 ft | 441 kts | 160° |
| 2026-05-07 14:17 | 50.66568 | 11.75484 | 30981 ft | 441 kts | 160° |
| 2026-05-07 14:18 | 50.60775 | 11.78559 | 30977 ft | 442 kts | 160° |
| 2026-05-07 14:18 | 50.54930 | 11.81651 | 30975 ft | 443 kts | 160° |
| 2026-05-07 14:19 | 50.49077 | 11.84738 | 30978 ft | 443 kts | 160° |
| 2026-05-07 14:19 | 50.43216 | 11.87819 | 30954 ft | 444 kts | 161° |
| 2026-05-07 14:20 | 50.37144 | 11.89422 | 30980 ft | 446 kts | 174° |
| 2026-05-07 14:20 | 50.30953 | 11.90109 | 30964 ft | 446 kts | 175° |
| 2026-05-07 14:21 | 50.24764 | 11.90669 | 30962 ft | 447 kts | 175° |
| 2026-05-07 14:21 | 50.18528 | 11.91250 | 30988 ft | 448 kts | 175° |
| 2026-05-07 14:22 | 50.12317 | 11.91872 | 30943 ft | 448 kts | 175° |
| 2026-05-07 14:22 | 50.09197 | 11.92210 | 30708 ft | 455 kts | 175° |
| 2026-05-07 14:22 | 50.06031 | 11.92554 | 30339 ft | 459 kts | 175° |
| 2026-05-07 14:22 | 50.02848 | 11.92897 | 29883 ft | 457 kts | 175° |
| 2026-05-07 14:23 | 49.99676 | 11.93234 | 29394 ft | 453 kts | 175° |
| 2026-05-07 14:23 | 49.96522 | 11.93567 | 28878 ft | 453 kts | 176° |
| 2026-05-07 14:23 | 49.93381 | 11.93896 | 28312 ft | 457 kts | 176° |
| 2026-05-07 14:23 | 49.90212 | 11.94228 | 27726 ft | 454 kts | 176° |
| 2026-05-07 14:24 | 49.87109 | 11.94551 | 27135 ft | 451 kts | 176° |
| 2026-05-07 14:24 | 49.83983 | 11.94874 | 26538 ft | 447 kts | 176° |
| 2026-05-07 14:24 | 49.80895 | 11.95192 | 26189 ft | 444 kts | 177° |
| 2026-05-07 14:24 | 49.77822 | 11.95509 | 25839 ft | 442 kts | 177° |
| 2026-05-07 14:25 | 49.74770 | 11.95824 | 25485 ft | 441 kts | 178° |
| 2026-05-07 14:25 | 49.71630 | 11.96146 | 25082 ft | 457 kts | 177° |
| 2026-05-07 14:25 | 49.68487 | 11.96466 | 24682 ft | 459 kts | 178° |
| 2026-05-07 14:25 | 49.65308 | 11.96795 | 24326 ft | 456 kts | 178° |
| 2026-05-07 14:26 | 49.62136 | 11.97120 | 23927 ft | 453 kts | 178° |
| 2026-05-07 14:26 | 49.59023 | 11.97440 | 23479 ft | 449 kts | 178° |
| 2026-05-07 14:26 | 49.55912 | 11.97757 | 23007 ft | 445 kts | 178° |
| 2026-05-07 14:26 | 49.52800 | 11.98073 | 22505 ft | 442 kts | 178° |
| 2026-05-07 14:27 | 49.49776 | 11.98381 | 21980 ft | 439 kts | 178° |
| 2026-05-07 14:27 | 49.46742 | 11.98691 | 21479 ft | 435 kts | 178° |
| 2026-05-07 14:27 | 49.43722 | 11.98999 | 20974 ft | 431 kts | 178° |
| 2026-05-07 14:27 | 49.40757 | 11.99300 | 20470 ft | 428 kts | 178° |
| 2026-05-07 14:28 | 49.37789 | 11.99602 | 19960 ft | 424 kts | 178° |
| 2026-05-07 14:28 | 49.34842 | 11.99902 | 19452 ft | 421 kts | 178° |
| 2026-05-07 14:28 | 49.31917 | 12.00199 | 18950 ft | 418 kts | 178° |
| 2026-05-07 14:28 | 49.29052 | 12.00487 | 18450 ft | 414 kts | 178° |
| 2026-05-07 14:29 | 49.26190 | 12.00776 | 17953 ft | 411 kts | 178° |
| 2026-05-07 14:29 | 49.23361 | 12.01064 | 17461 ft | 408 kts | 178° |
| 2026-05-07 14:29 | 49.20542 | 12.01348 | 16997 ft | 405 kts | 178° |
| 2026-05-07 14:29 | 49.17742 | 12.01630 | 16556 ft | 402 kts | 178° |
| 2026-05-07 14:30 | 49.14952 | 12.01913 | 16115 ft | 399 kts | 178° |
| 2026-05-07 14:30 | 49.12202 | 12.02190 | 15686 ft | 397 kts | 178° |
| 2026-05-07 14:30 | 49.09463 | 12.02465 | 15251 ft | 395 kts | 178° |
| 2026-05-07 14:30 | 49.06746 | 12.02738 | 14823 ft | 392 kts | 178° |
| 2026-05-07 14:31 | 49.04018 | 12.03013 | 14403 ft | 389 kts | 178° |
| 2026-05-07 14:31 | 49.01317 | 12.03284 | 13940 ft | 386 kts | 178° |
| 2026-05-07 14:31 | 48.98653 | 12.03550 | 13487 ft | 383 kts | 178° |
| 2026-05-07 14:31 | 48.96003 | 12.03814 | 13033 ft | 380 kts | 178° |
| 2026-05-07 14:32 | 48.93369 | 12.04076 | 12590 ft | 378 kts | 178° |
| 2026-05-07 14:32 | 48.90767 | 12.04336 | 12136 ft | 372 kts | 178° |
| 2026-05-07 14:32 | 48.88225 | 12.04591 | 11657 ft | 363 kts | 179° |
| 2026-05-07 14:32 | 48.85785 | 12.04839 | 11308 ft | 342 kts | 179° |
| 2026-05-07 14:33 | 48.83413 | 12.05075 | 10947 ft | 332 kts | 179° |
| 2026-05-07 14:33 | 48.81149 | 12.05299 | 10581 ft | 325 kts | 179° |
| 2026-05-07 14:33 | 48.78902 | 12.05520 | 10230 ft | 319 kts | 179° |
| 2026-05-07 14:33 | 48.76732 | 12.05733 | 10006 ft | 309 kts | 179° |
| 2026-05-07 14:34 | 48.74564 | 12.05945 | 9991 ft | 308 kts | 179° |
| 2026-05-07 14:34 | 48.72434 | 12.06154 | 9938 ft | 303 kts | 179° |
| 2026-05-07 14:34 | 48.70374 | 12.06360 | 9564 ft | 288 kts | 179° |
| 2026-05-07 14:34 | 48.68399 | 12.06555 | 9193 ft | 283 kts | 179° |
| 2026-05-07 14:35 | 48.66461 | 12.06742 | 8821 ft | 282 kts | 179° |
| 2026-05-07 14:35 | 48.64484 | 12.06934 | 8441 ft | 280 kts | 179° |
| 2026-05-07 14:35 | 48.62577 | 12.07121 | 8062 ft | 271 kts | 179° |
| 2026-05-07 14:35 | 48.60706 | 12.07305 | 7695 ft | 269 kts | 179° |
| 2026-05-07 14:36 | 48.58825 | 12.07489 | 7307 ft | 267 kts | 179° |
| 2026-05-07 14:36 | 48.56981 | 12.07671 | 6904 ft | 266 kts | 179° |
| 2026-05-07 14:36 | 48.55158 | 12.07849 | 6636 ft | 262 kts | 179° |
| 2026-05-07 14:36 | 48.53339 | 12.08029 | 6337 ft | 254 kts | 179° |
| 2026-05-07 14:37 | 48.51626 | 12.08199 | 6059 ft | 244 kts | 179° |
| 2026-05-07 14:37 | 48.48268 | 12.08526 | 5609 ft | 240 kts | 179° |
| 2026-05-07 14:37 | 48.46612 | 12.08687 | 5306 ft | 236 kts | 179° |
| 2026-05-07 14:38 | 48.45016 | 12.08843 | 5000 ft | 228 kts | 179° |
| 2026-05-07 14:38 | 48.43424 | 12.08997 | 4700 ft | 227 kts | 179° |
| 2026-05-07 14:38 | 48.41863 | 12.09149 | 4395 ft | 221 kts | 179° |
| 2026-05-07 14:38 | 48.40377 | 12.09083 | 4072 ft | 208 kts | 201° |
| 2026-05-07 14:39 | 48.39256 | 12.07977 | 4002 ft | 189 kts | 236° |
| 2026-05-07 14:39 | 48.38656 | 12.06250 | 4040 ft | 181 kts | 254° |
| 2026-05-07 14:39 | 48.38380 | 12.04424 | 4161 ft | 180 kts | 263° |
| 2026-05-07 14:39 | 48.38245 | 12.02591 | 4084 ft | 170 kts | 266° |
| 2026-05-07 14:40 | 48.38137 | 12.00845 | 3878 ft | 163 kts | 266° |
| 2026-05-07 14:40 | 48.38025 | 11.99199 | 3662 ft | 157 kts | 266° |
| 2026-05-07 14:40 | 48.37902 | 11.97561 | 3457 ft | 156 kts | 265° |
| 2026-05-07 14:40 | 48.37773 | 11.95922 | 3252 ft | 157 kts | 265° |
| 2026-05-07 14:41 | 48.37643 | 11.94290 | 3047 ft | 158 kts | 265° |
| 2026-05-07 14:41 | 48.37512 | 11.92652 | 2851 ft | 155 kts | 265° |
| 2026-05-07 14:41 | 48.37387 | 11.91111 | 2640 ft | 143 kts | 266° |
| 2026-05-07 14:41 | 48.37275 | 11.89657 | 2447 ft | 138 kts | 264° |
| 2026-05-07 14:42 | 48.37163 | 11.88228 | 2264 ft | 136 kts | 265° |
| 2026-05-07 14:42 | 48.37051 | 11.86816 | 2105 ft | 138 kts | 264° |
| 2026-05-07 14:42 | 48.36930 | 11.85356 | 1917 ft | 141 kts | 266° |
| 2026-05-07 14:42 | 48.36824 | 11.83916 | 1697 ft | 139 kts | 266° |
| 2026-05-07 14:43 | 48.36711 | 11.82454 | 1532 ft | 144 kts | 266° |
| 2026-05-07 14:43 | 48.36601 | 11.80983 | 1459 ft | 130 kts | 265° |
| 2026-05-07 14:43 | 48.36518 | 11.79871 | 1464 ft | 81 kts | 264° |
| 2026-05-07 14:43 | 48.36467 | 11.79228 | 1467 ft | 49 kts | 263° |
| 2026-05-07 14:44 | 48.36368 | 11.78839 | 1470 ft | 36 kts | 232° |
| 2026-05-07 14:44 | 48.36236 | 11.78572 | 1472 ft | 20 kts | 235° |
| 2026-05-07 14:44 | 48.36183 | 11.78487 | 1472 ft | 9 kts | 204° |
| 2026-05-07 14:44 | 48.36117 | 11.78483 | 1472 ft | 9 kts | 167° |
| 2026-05-07 14:45 | 48.36047 | 11.78501 | 1473 ft | 10 kts | 151° |
| 2026-05-07 14:45 | 48.36038 | 11.78602 | 1473 ft | 10 kts | 82° |
| 2026-05-07 14:45 | 48.36049 | 11.78728 | 1472 ft | 13 kts | 83° |
| 2026-05-07 14:45 | 48.36060 | 11.78872 | 1472 ft | 15 kts | 83° |
| 2026-05-07 14:46 | 48.36073 | 11.79039 | 1471 ft | 16 kts | 84° |
| 2026-05-07 14:46 | 48.36087 | 11.79224 | 1470 ft | 18 kts | 83° |
| 2026-05-07 14:46 | 48.36037 | 11.79327 | 1469 ft | 9 kts | 169° |
| 2026-05-07 14:46 | 48.35970 | 11.79338 | 1470 ft | 9 kts | 174° |
| 2026-05-07 14:47 | 48.35907 | 11.79378 | 1470 ft | 10 kts | 130° |
| 2026-05-07 14:47 | 48.35857 | 11.79455 | 1470 ft | 10 kts | 173° |
| 2026-05-07 14:47 | 48.35779 | 11.79466 | 1471 ft | 12 kts | 174° |
| 2026-05-07 14:47 | 48.35681 | 11.79483 | 1472 ft | 15 kts | 173° |
| 2026-05-07 14:48 | 48.35563 | 11.79502 | 1473 ft | 18 kts | 174° |
| 2026-05-07 14:48 | 48.35430 | 11.79525 | 1473 ft | 20 kts | 173° |
| 2026-05-07 14:48 | 48.35284 | 11.79552 | 1474 ft | 21 kts | 173° |
| 2026-05-07 14:48 | 48.35137 | 11.79576 | 1475 ft | 21 kts | 174° |
| 2026-05-07 14:49 | 48.35037 | 11.79552 | 1475 ft | 12 kts | 236° |
| 2026-05-07 14:49 | 48.35023 | 11.79423 | 1476 ft | 10 kts | 264° |
| 2026-05-07 14:49 | 48.35019 | 11.79376 | 1476 ft | 0 kts | 263° |